BAW438W EGLL-EHAM
Flight info
| Callsign | BAW438W |
|---|---|
| Flight time | 0h 47m |
| Altitude | 29000 |
| Route | BPK Q295 BRAIN M197 REDFA |
| Aircraft | A319/M-SDE3FGHIRWY/LB1 |
Departure
| Time | 2026-05-07 18:02 |
|---|---|
| Airport | London Heathrow Airport (EGLL) |
Arrival
| Time | 2026-05-07 18:50 |
|---|---|
| Airport | Amsterdam Airport Schiphol (EHAM) |
| Time | Latitude | Longitude | Altitude | Speed | Heading |
|---|---|---|---|---|---|
| 2026-05-07 17:26 | 51.46934 | -0.48648 | 85 ft | 0 kts | 360° |
| 2026-05-07 17:27 | 51.46929 | -0.48717 | 85 ft | 0 kts | 360° |
| 2026-05-07 17:50 | 51.46919 | -0.48717 | 90 ft | 2 kts | 13° |
| 2026-05-07 17:50 | 51.46903 | -0.48721 | 90 ft | 2 kts | 21° |
| 2026-05-07 17:50 | 51.46889 | -0.48734 | 86 ft | 2 kts | 50° |
| 2026-05-07 17:50 | 51.46881 | -0.48756 | 87 ft | 3 kts | 72° |
| 2026-05-07 17:51 | 51.46877 | -0.48790 | 86 ft | 3 kts | 89° |
| 2026-05-07 17:51 | 51.46877 | -0.48821 | 85 ft | 0 kts | 88° |
| 2026-05-07 17:54 | 51.46877 | -0.48809 | 88 ft | 3 kts | 88° |
| 2026-05-07 17:54 | 51.46867 | -0.48764 | 89 ft | 7 kts | 139° |
| 2026-05-07 17:54 | 51.46799 | -0.48752 | 86 ft | 12 kts | 180° |
| 2026-05-07 17:54 | 51.46703 | -0.48751 | 85 ft | 14 kts | 179° |
| 2026-05-07 17:55 | 51.46645 | -0.48751 | 86 ft | 0 kts | 182° |
| 2026-05-07 17:56 | 51.46631 | -0.48752 | 86 ft | 7 kts | 183° |
| 2026-05-07 17:56 | 51.46594 | -0.48770 | 87 ft | 0 kts | 201° |
| 2026-05-07 17:59 | 51.46593 | -0.48770 | 87 ft | 1 kts | 201° |
| 2026-05-07 17:59 | 51.46570 | -0.48784 | 84 ft | 6 kts | 200° |
| 2026-05-07 17:59 | 51.46524 | -0.48790 | 85 ft | 7 kts | 166° |
| 2026-05-07 18:00 | 51.46485 | -0.48728 | 88 ft | 11 kts | 118° |
| 2026-05-07 18:00 | 51.46477 | -0.48620 | 86 ft | 0 kts | 89° |
| 2026-05-07 18:01 | 51.46477 | -0.48611 | 86 ft | 6 kts | 89° |
| 2026-05-07 18:01 | 51.46479 | -0.48280 | 88 ft | 60 kts | 90° |
| 2026-05-07 18:02 | 51.46489 | -0.45695 | 156 ft | 159 kts | 91° |
| 2026-05-07 18:02 | 51.46509 | -0.43947 | 855 ft | 156 kts | 92° |
| 2026-05-07 18:02 | 51.46542 | -0.42182 | 1512 ft | 164 kts | 87° |
| 2026-05-07 18:03 | 51.46974 | -0.40346 | 1924 ft | 191 kts | 56° |
| 2026-05-07 18:03 | 51.47863 | -0.38579 | 2369 ft | 215 kts | 51° |
| 2026-05-07 18:03 | 51.48864 | -0.36599 | 2815 ft | 241 kts | 52° |
| 2026-05-07 18:03 | 51.49966 | -0.34412 | 3524 ft | 259 kts | 51° |
| 2026-05-07 18:04 | 51.51105 | -0.32150 | 4603 ft | 262 kts | 51° |
| 2026-05-07 18:04 | 51.52230 | -0.29809 | 5523 ft | 268 kts | 58° |
| 2026-05-07 18:04 | 51.52960 | -0.27058 | 5865 ft | 268 kts | 71° |
| 2026-05-07 18:04 | 51.53585 | -0.24247 | 5987 ft | 268 kts | 65° |
| 2026-05-07 18:05 | 51.54617 | -0.21799 | 6005 ft | 268 kts | 46° |
| 2026-05-07 18:05 | 51.56118 | -0.20043 | 6007 ft | 268 kts | 26° |
| 2026-05-07 18:05 | 51.57852 | -0.18915 | 6007 ft | 269 kts | 22° |
| 2026-05-07 18:05 | 51.59612 | -0.17845 | 6008 ft | 271 kts | 17° |
| 2026-05-07 18:06 | 51.61419 | -0.16986 | 6008 ft | 271 kts | 17° |
| 2026-05-07 18:06 | 51.63228 | -0.16131 | 6009 ft | 271 kts | 16° |
| 2026-05-07 18:06 | 51.65040 | -0.15279 | 6009 ft | 271 kts | 16° |
| 2026-05-07 18:06 | 51.66851 | -0.14450 | 6009 ft | 271 kts | 15° |
| 2026-05-07 18:07 | 51.68672 | -0.13656 | 6038 ft | 271 kts | 15° |
| 2026-05-07 18:07 | 51.70497 | -0.12878 | 6037 ft | 271 kts | 15° |
| 2026-05-07 18:07 | 51.72265 | -0.11843 | 6034 ft | 271 kts | 28° |
| 2026-05-07 18:07 | 51.73764 | -0.10099 | 6033 ft | 270 kts | 45° |
| 2026-05-07 18:08 | 51.74890 | -0.07645 | 6031 ft | 269 kts | 64° |
| 2026-05-07 18:08 | 51.75461 | -0.04826 | 6054 ft | 271 kts | 82° |
| 2026-05-07 18:08 | 51.75690 | -0.01782 | 6908 ft | 273 kts | 83° |
| 2026-05-07 18:08 | 51.75941 | 0.01290 | 7797 ft | 280 kts | 83° |
| 2026-05-07 18:09 | 51.76209 | 0.04455 | 8668 ft | 288 kts | 84° |
| 2026-05-07 18:09 | 51.76483 | 0.07692 | 9596 ft | 293 kts | 84° |
| 2026-05-07 18:09 | 51.76761 | 0.10990 | 10337 ft | 305 kts | 84° |
| 2026-05-07 18:09 | 51.77055 | 0.14518 | 10661 ft | 329 kts | 84° |
| 2026-05-07 18:10 | 51.77366 | 0.18284 | 11107 ft | 345 kts | 84° |
| 2026-05-07 18:10 | 51.77684 | 0.22155 | 11854 ft | 350 kts | 84° |
| 2026-05-07 18:10 | 51.77999 | 0.26024 | 12640 ft | 354 kts | 84° |
| 2026-05-07 18:10 | 51.78321 | 0.29984 | 13436 ft | 357 kts | 84° |
| 2026-05-07 18:11 | 51.78646 | 0.33987 | 14184 ft | 361 kts | 84° |
| 2026-05-07 18:11 | 51.78868 | 0.36719 | 14632 ft | 364 kts | 84° |
| 2026-05-07 18:11 | 51.79305 | 0.42138 | 15495 ft | 370 kts | 84° |
| 2026-05-07 18:11 | 51.79634 | 0.46285 | 16160 ft | 374 kts | 84° |
| 2026-05-07 18:12 | 51.79966 | 0.50483 | 16795 ft | 379 kts | 84° |
| 2026-05-07 18:12 | 51.80187 | 0.53297 | 17230 ft | 382 kts | 84° |
| 2026-05-07 18:12 | 51.80520 | 0.57578 | 17886 ft | 386 kts | 84° |
| 2026-05-07 18:12 | 51.80855 | 0.61923 | 18513 ft | 391 kts | 84° |
| 2026-05-07 18:13 | 51.81274 | 0.66279 | 19138 ft | 394 kts | 77° |
| 2026-05-07 18:13 | 51.82158 | 0.72022 | 19930 ft | 399 kts | 76° |
| 2026-05-07 18:13 | 51.82617 | 0.74975 | 20343 ft | 402 kts | 76° |
| 2026-05-07 18:13 | 51.83300 | 0.79376 | 20938 ft | 405 kts | 76° |
| 2026-05-07 18:14 | 51.84001 | 0.83818 | 21520 ft | 409 kts | 75° |
| 2026-05-07 18:14 | 51.84766 | 0.88224 | 22079 ft | 413 kts | 74° |
| 2026-05-07 18:14 | 51.85592 | 0.92697 | 22631 ft | 417 kts | 73° |
| 2026-05-07 18:14 | 51.86443 | 0.97211 | 23177 ft | 421 kts | 73° |
| 2026-05-07 18:15 | 51.87298 | 1.01762 | 23717 ft | 424 kts | 73° |
| 2026-05-07 18:15 | 51.88150 | 1.06355 | 24163 ft | 427 kts | 73° |
| 2026-05-07 18:15 | 51.88995 | 1.10977 | 24613 ft | 430 kts | 74° |
| 2026-05-07 18:15 | 51.89836 | 1.15636 | 25059 ft | 433 kts | 74° |
| 2026-05-07 18:16 | 51.90678 | 1.20329 | 25499 ft | 435 kts | 74° |
| 2026-05-07 18:16 | 51.91523 | 1.25054 | 25934 ft | 438 kts | 74° |
| 2026-05-07 18:16 | 51.92369 | 1.29813 | 26378 ft | 441 kts | 74° |
| 2026-05-07 18:16 | 51.93220 | 1.34601 | 26815 ft | 444 kts | 74° |
| 2026-05-07 18:17 | 51.94077 | 1.39420 | 27249 ft | 447 kts | 74° |
| 2026-05-07 18:17 | 51.94943 | 1.44292 | 27671 ft | 450 kts | 74° |
| 2026-05-07 18:17 | 51.95807 | 1.49170 | 28096 ft | 452 kts | 74° |
| 2026-05-07 18:17 | 51.96677 | 1.54098 | 28533 ft | 455 kts | 74° |
| 2026-05-07 18:18 | 51.97532 | 1.58966 | 28919 ft | 457 kts | 74° |
| 2026-05-07 18:18 | 51.98403 | 1.63938 | 29072 ft | 455 kts | 74° |
| 2026-05-07 18:18 | 51.99257 | 1.68820 | 29096 ft | 447 kts | 75° |
| 2026-05-07 18:19 | 52.00832 | 1.78515 | 29094 ft | 443 kts | 76° |
| 2026-05-07 18:19 | 52.01572 | 1.83372 | 28896 ft | 443 kts | 77° |
| 2026-05-07 18:19 | 52.02304 | 1.88237 | 28615 ft | 443 kts | 77° |
| 2026-05-07 18:19 | 52.03034 | 1.93096 | 28346 ft | 443 kts | 77° |
| 2026-05-07 18:20 | 52.03768 | 1.97955 | 28062 ft | 442 kts | 77° |
| 2026-05-07 18:20 | 52.04505 | 2.02792 | 27791 ft | 442 kts | 76° |
| 2026-05-07 18:20 | 52.05245 | 2.07638 | 27535 ft | 442 kts | 76° |
| 2026-05-07 18:20 | 52.05986 | 2.12483 | 27255 ft | 441 kts | 76° |
| 2026-05-07 18:21 | 52.06724 | 2.17315 | 26978 ft | 438 kts | 76° |
| 2026-05-07 18:21 | 52.07453 | 2.22089 | 26392 ft | 434 kts | 76° |
| 2026-05-07 18:21 | 52.08176 | 2.26844 | 25792 ft | 431 kts | 77° |
| 2026-05-07 18:21 | 52.08889 | 2.31563 | 25194 ft | 432 kts | 77° |
| 2026-05-07 18:22 | 52.09622 | 2.36456 | 24595 ft | 458 kts | 77° |
| 2026-05-07 18:22 | 52.10127 | 2.39843 | 24181 ft | 473 kts | 77° |
| 2026-05-07 18:22 | 52.11247 | 2.46940 | 23276 ft | 503 kts | 72° |
| 2026-05-07 18:22 | 52.12456 | 2.52249 | 23742 ft | 489 kts | 69° |
| 2026-05-07 18:23 | 52.13787 | 2.57191 | 23756 ft | 465 kts | 62° |
| 2026-05-07 18:23 | 52.15384 | 2.61648 | 23550 ft | 447 kts | 57° |
| 2026-05-07 18:23 | 52.17108 | 2.65806 | 22980 ft | 438 kts | 54° |
| 2026-05-07 18:23 | 52.18844 | 2.69844 | 22290 ft | 432 kts | 55° |
| 2026-05-07 18:24 | 52.20309 | 2.74050 | 21945 ft | 420 kts | 66° |
| 2026-05-07 18:24 | 52.21463 | 2.78336 | 21670 ft | 407 kts | 66° |
| 2026-05-07 18:24 | 52.22604 | 2.82535 | 21211 ft | 402 kts | 66° |
| 2026-05-07 18:24 | 52.23729 | 2.86677 | 20694 ft | 398 kts | 66° |
| 2026-05-07 18:25 | 52.24842 | 2.90794 | 20172 ft | 394 kts | 66° |
| 2026-05-07 18:25 | 52.25937 | 2.94878 | 19655 ft | 391 kts | 66° |
| 2026-05-07 18:25 | 52.27017 | 2.98929 | 19116 ft | 388 kts | 66° |
| 2026-05-07 18:25 | 52.28088 | 3.02951 | 18568 ft | 385 kts | 67° |
| 2026-05-07 18:26 | 52.29152 | 3.06957 | 18010 ft | 382 kts | 66° |
| 2026-05-07 18:26 | 52.30205 | 3.10922 | 17374 ft | 379 kts | 66° |
| 2026-05-07 18:26 | 52.31245 | 3.14851 | 16802 ft | 374 kts | 67° |
| 2026-05-07 18:26 | 52.32268 | 3.18717 | 15930 ft | 369 kts | 67° |
| 2026-05-07 18:27 | 52.33286 | 3.22572 | 15220 ft | 368 kts | 67° |
| 2026-05-07 18:27 | 52.34296 | 3.26387 | 14702 ft | 364 kts | 67° |
| 2026-05-07 18:27 | 52.35284 | 3.30125 | 14140 ft | 362 kts | 67° |
| 2026-05-07 18:27 | 52.36276 | 3.33891 | 13586 ft | 358 kts | 67° |
| 2026-05-07 18:28 | 52.37254 | 3.37623 | 12981 ft | 355 kts | 67° |
| 2026-05-07 18:28 | 52.38226 | 3.41328 | 12410 ft | 352 kts | 67° |
| 2026-05-07 18:28 | 52.39185 | 3.44992 | 11870 ft | 349 kts | 67° |
| 2026-05-07 18:28 | 52.40137 | 3.48643 | 11289 ft | 346 kts | 67° |
| 2026-05-07 18:29 | 52.41077 | 3.52253 | 10791 ft | 342 kts | 67° |
| 2026-05-07 18:29 | 52.42007 | 3.55832 | 10235 ft | 340 kts | 67° |
| 2026-05-07 18:29 | 52.42928 | 3.59365 | 9931 ft | 330 kts | 67° |
| 2026-05-07 18:29 | 52.43808 | 3.62747 | 9798 ft | 316 kts | 67° |
| 2026-05-07 18:30 | 52.44641 | 3.65960 | 9663 ft | 304 kts | 67° |
| 2026-05-07 18:30 | 52.45452 | 3.69091 | 9493 ft | 294 kts | 67° |
| 2026-05-07 18:30 | 52.46247 | 3.72167 | 9153 ft | 291 kts | 68° |
| 2026-05-07 18:30 | 52.47034 | 3.75225 | 8778 ft | 290 kts | 68° |
| 2026-05-07 18:31 | 52.47817 | 3.78263 | 8447 ft | 287 kts | 68° |
| 2026-05-07 18:31 | 52.48592 | 3.81280 | 8081 ft | 286 kts | 69° |
| 2026-05-07 18:31 | 52.49362 | 3.84286 | 7715 ft | 285 kts | 69° |
| 2026-05-07 18:31 | 52.50129 | 3.87270 | 7391 ft | 283 kts | 69° |
| 2026-05-07 18:32 | 52.50892 | 3.90241 | 7130 ft | 281 kts | 69° |
| 2026-05-07 18:32 | 52.51614 | 3.93224 | 7098 ft | 281 kts | 75° |
| 2026-05-07 18:32 | 52.51933 | 3.96370 | 7105 ft | 279 kts | 90° |
| 2026-05-07 18:32 | 52.51717 | 3.99502 | 7093 ft | 276 kts | 109° |
| 2026-05-07 18:33 | 52.51043 | 4.02440 | 7095 ft | 275 kts | 114° |
| 2026-05-07 18:33 | 52.50345 | 4.05360 | 7103 ft | 275 kts | 113° |
| 2026-05-07 18:33 | 52.49645 | 4.08276 | 7097 ft | 275 kts | 113° |
| 2026-05-07 18:33 | 52.48949 | 4.11158 | 7096 ft | 275 kts | 113° |
| 2026-05-07 18:34 | 52.48244 | 4.14065 | 7096 ft | 275 kts | 113° |
| 2026-05-07 18:34 | 52.47534 | 4.16976 | 7096 ft | 275 kts | 114° |
| 2026-05-07 18:34 | 52.46822 | 4.19886 | 7090 ft | 274 kts | 114° |
| 2026-05-07 18:34 | 52.46113 | 4.22789 | 7090 ft | 275 kts | 114° |
| 2026-05-07 18:35 | 52.45403 | 4.25704 | 7093 ft | 274 kts | 114° |
| 2026-05-07 18:35 | 52.44712 | 4.28528 | 7086 ft | 260 kts | 114° |
| 2026-05-07 18:35 | 52.44056 | 4.31206 | 7092 ft | 247 kts | 114° |
| 2026-05-07 18:35 | 52.43421 | 4.33796 | 7094 ft | 243 kts | 114° |
| 2026-05-07 18:36 | 52.42791 | 4.36364 | 7091 ft | 242 kts | 113° |
| 2026-05-07 18:36 | 52.42160 | 4.38933 | 7088 ft | 243 kts | 114° |
| 2026-05-07 18:36 | 52.41530 | 4.41494 | 7087 ft | 243 kts | 113° |
| 2026-05-07 18:36 | 52.40901 | 4.44054 | 7088 ft | 242 kts | 114° |
| 2026-05-07 18:37 | 52.40268 | 4.46618 | 7091 ft | 243 kts | 114° |
| 2026-05-07 18:37 | 52.39635 | 4.49177 | 7097 ft | 243 kts | 115° |
| 2026-05-07 18:37 | 52.39002 | 4.51735 | 7091 ft | 242 kts | 114° |
| 2026-05-07 18:37 | 52.38367 | 4.54297 | 7087 ft | 243 kts | 114° |
| 2026-05-07 18:38 | 52.37815 | 4.56515 | 7086 ft | 243 kts | 114° |
| 2026-05-07 18:38 | 52.37178 | 4.59073 | 7086 ft | 243 kts | 115° |
| 2026-05-07 18:38 | 52.36373 | 4.61428 | 7085 ft | 239 kts | 135° |
| 2026-05-07 18:38 | 52.34993 | 4.62834 | 6952 ft | 233 kts | 167° |
| 2026-05-07 18:39 | 52.33410 | 4.62830 | 6641 ft | 230 kts | 199° |
| 2026-05-07 18:39 | 52.32103 | 4.61413 | 6354 ft | 228 kts | 229° |
| 2026-05-07 18:39 | 52.31196 | 4.59286 | 6016 ft | 228 kts | 237° |
| 2026-05-07 18:39 | 52.30359 | 4.57071 | 5655 ft | 230 kts | 237° |
| 2026-05-07 18:40 | 52.29531 | 4.54839 | 5347 ft | 229 kts | 237° |
| 2026-05-07 18:40 | 52.28704 | 4.52606 | 4997 ft | 230 kts | 238° |
| 2026-05-07 18:40 | 52.27872 | 4.50368 | 4684 ft | 230 kts | 238° |
| 2026-05-07 18:40 | 52.27051 | 4.48125 | 4352 ft | 230 kts | 238° |
| 2026-05-07 18:41 | 52.26227 | 4.45885 | 4097 ft | 230 kts | 237° |
| 2026-05-07 18:41 | 52.25414 | 4.43663 | 4034 ft | 231 kts | 237° |
| 2026-05-07 18:41 | 52.24591 | 4.41414 | 3690 ft | 231 kts | 238° |
| 2026-05-07 18:41 | 52.23756 | 4.39157 | 3340 ft | 233 kts | 237° |
| 2026-05-07 18:42 | 52.22919 | 4.36886 | 3060 ft | 232 kts | 238° |
| 2026-05-07 18:42 | 52.22097 | 4.34676 | 3004 ft | 221 kts | 238° |
| 2026-05-07 18:42 | 52.21326 | 4.32603 | 3010 ft | 206 kts | 236° |
| 2026-05-07 18:42 | 52.20369 | 4.31019 | 3044 ft | 191 kts | 199° |
| 2026-05-07 18:43 | 52.19122 | 4.30837 | 3407 ft | 187 kts | 165° |
| 2026-05-07 18:43 | 52.18085 | 4.31960 | 3453 ft | 181 kts | 124° |
| 2026-05-07 18:43 | 52.17706 | 4.33898 | 3412 ft | 181 kts | 97° |
| 2026-05-07 18:43 | 52.17624 | 4.35950 | 3396 ft | 182 kts | 93° |
| 2026-05-07 18:44 | 52.17571 | 4.37979 | 3396 ft | 181 kts | 92° |
| 2026-05-07 18:44 | 52.17521 | 4.40025 | 3395 ft | 181 kts | 93° |
| 2026-05-07 18:44 | 52.17470 | 4.42066 | 3391 ft | 180 kts | 92° |
| 2026-05-07 18:44 | 52.17557 | 4.44081 | 3182 ft | 179 kts | 75° |
| 2026-05-07 18:45 | 52.18140 | 4.45865 | 3019 ft | 180 kts | 59° |
| 2026-05-07 18:45 | 52.18809 | 4.47592 | 3020 ft | 181 kts | 59° |
| 2026-05-07 18:45 | 52.19479 | 4.49323 | 3012 ft | 181 kts | 59° |
| 2026-05-07 18:45 | 52.20151 | 4.51058 | 3011 ft | 181 kts | 59° |
| 2026-05-07 18:46 | 52.20828 | 4.52804 | 2943 ft | 182 kts | 59° |
| 2026-05-07 18:46 | 52.21499 | 4.54532 | 2751 ft | 180 kts | 59° |
| 2026-05-07 18:46 | 52.22161 | 4.56240 | 2526 ft | 178 kts | 59° |
| 2026-05-07 18:46 | 52.22821 | 4.57944 | 2277 ft | 177 kts | 58° |
| 2026-05-07 18:47 | 52.23479 | 4.59644 | 2039 ft | 176 kts | 59° |
| 2026-05-07 18:47 | 52.24131 | 4.61331 | 1801 ft | 174 kts | 59° |
| 2026-05-07 18:47 | 52.24772 | 4.62990 | 1558 ft | 173 kts | 59° |
| 2026-05-07 18:47 | 52.25408 | 4.64635 | 1324 ft | 173 kts | 58° |
| 2026-05-07 18:48 | 52.26045 | 4.66286 | 1092 ft | 170 kts | 58° |
| 2026-05-07 18:48 | 52.26648 | 4.67849 | 851 ft | 155 kts | 57° |
| 2026-05-07 18:48 | 52.27187 | 4.69247 | 664 ft | 138 kts | 57° |
| 2026-05-07 18:48 | 52.27684 | 4.70527 | 485 ft | 131 kts | 56° |
| 2026-05-07 18:49 | 52.28172 | 4.71789 | 313 ft | 130 kts | 56° |
| 2026-05-07 18:49 | 52.28652 | 4.73052 | 100 ft | 130 kts | 58° |
| 2026-05-07 18:49 | 52.29127 | 4.74287 | 2 ft | 122 kts | 57° |
| 2026-05-07 18:49 | 52.29504 | 4.75270 | -3 ft | 79 kts | 58° |
| 2026-05-07 18:50 | 52.29731 | 4.75789 | -3 ft | 33 kts | 20° |
| 2026-05-07 18:50 | 52.29892 | 4.75897 | -3 ft | 0 kts | 27° |